createdAt,value
2022-10-29T00:01:06.108Z,3.90
2022-10-29T00:04:09.024Z,3.97
2022-10-29T00:07:13.234Z,4.22
2022-10-29T00:10:15.909Z,3.72
2022-10-29T00:13:18.568Z,4.30
2022-10-29T00:16:23.622Z,3.70
2022-10-29T00:19:27.858Z,3.58
2022-10-29T00:22:32.631Z,3.63
2022-10-29T00:25:35.489Z,3.63
2022-10-29T00:28:38.269Z,3.70
2022-10-29T00:31:41.066Z,3.70
2022-10-29T00:34:43.948Z,4.03
2022-10-29T00:37:48.362Z,3.88
2022-10-29T00:40:51.287Z,3.80
2022-10-29T00:44:28.380Z,4.33
2022-10-29T00:47:34.778Z,3.78
2022-10-29T00:50:37.563Z,4.07
2022-10-29T00:53:45.468Z,3.20
2022-10-29T00:56:50.059Z,3.40
2022-10-29T00:59:53.852Z,3.40
2022-10-29T01:02:56.873Z,3.53
2022-10-29T01:06:01.192Z,3.30
2022-10-29T01:09:05.609Z,3.88
2022-10-29T01:12:26.806Z,4.00
2022-10-29T01:15:38.237Z,4.27
2022-10-29T01:18:50.006Z,3.45
2022-10-29T01:21:57.532Z,3.15
2022-10-29T01:25:26.903Z,3.60
2022-10-29T01:28:42.735Z,3.58
2022-10-29T01:31:50.951Z,3.20
2022-10-29T01:35:01.450Z,3.63
2022-10-29T01:38:13.292Z,3.85
2022-10-29T01:41:21.385Z,3.50
2022-10-29T01:44:34.282Z,3.47
2022-10-29T01:47:43.006Z,3.37
2022-10-29T01:50:50.771Z,3.47
2022-10-29T01:53:54.517Z,3.28
2022-10-29T01:56:58.433Z,3.75
2022-10-29T02:00:04.100Z,3.63
2022-10-29T02:03:22.649Z,3.33
2022-10-29T02:06:38.209Z,3.13
2022-10-29T02:09:53.215Z,3.72
2022-10-29T02:12:58.459Z,3.35
2022-10-29T02:16:06.753Z,3.53
2022-10-29T02:19:10.931Z,3.77
2022-10-29T02:22:13.518Z,3.42
2022-10-29T02:25:16.219Z,3.30
2022-10-29T02:31:26.922Z,3.83
2022-10-29T02:34:31.023Z,3.20
2022-10-29T02:37:34.968Z,3.80
2022-10-29T02:40:37.697Z,3.65
2022-10-29T02:43:40.419Z,3.08
2022-10-29T02:46:43.137Z,3.75
2022-10-29T02:49:47.814Z,3.20
2022-10-29T02:52:53.249Z,3.47
2022-10-29T02:55:56.114Z,3.38
2022-10-29T02:58:59.007Z,3.30
2022-10-29T03:02:01.889Z,3.13
2022-10-29T03:05:06.798Z,3.37
2022-10-29T03:08:09.831Z,3.30
2022-10-29T03:11:13.396Z,3.50
2022-10-29T03:14:16.734Z,3.58
2022-10-29T03:17:19.820Z,3.58
2022-10-29T03:20:24.547Z,3.30
2022-10-29T03:23:27.765Z,3.30
2022-10-29T03:26:30.761Z,3.75
2022-10-29T03:29:33.627Z,3.13
2022-10-29T03:32:36.470Z,3.70
2022-10-29T03:35:43.939Z,3.57
2022-10-29T03:38:47.033Z,3.38
2022-10-29T03:41:49.704Z,3.80
2022-10-29T03:44:52.968Z,3.58
2022-10-29T03:47:56.222Z,3.58
2022-10-29T03:51:02.896Z,3.57
2022-10-29T03:54:05.734Z,3.63
2022-10-29T03:57:09.091Z,3.30
2022-10-29T04:00:12.813Z,3.50
2022-10-29T04:03:15.373Z,3.30
2022-10-29T04:06:19.908Z,3.30
2022-10-29T04:09:22.525Z,3.22
2022-10-29T04:12:25.228Z,3.30
2022-10-29T04:15:27.926Z,3.38
2022-10-29T04:18:30.625Z,3.33
2022-10-29T04:31:42.602Z,3.50
2022-10-29T04:34:45.141Z,3.83
2022-10-29T04:37:49.167Z,3.33
2022-10-29T04:40:51.766Z,3.50
2022-10-29T04:43:54.443Z,3.70
2022-10-29T04:46:57.108Z,3.40
2022-10-29T04:49:59.737Z,3.45
2022-10-29T04:53:05.198Z,3.47
2022-10-29T04:56:08.161Z,3.83
2022-10-29T04:59:10.834Z,4.00
2022-10-29T05:02:13.565Z,3.63
2022-10-29T05:05:16.273Z,3.42
2022-10-29T05:08:21.618Z,3.23
2022-10-29T05:11:24.181Z,3.40
2022-10-29T05:14:26.910Z,4.38
2022-10-29T05:17:29.626Z,4.00
2022-10-29T05:20:32.481Z,4.47
2022-10-29T05:23:36.484Z,4.20
2022-10-29T05:26:39.108Z,3.90
2022-10-29T05:29:41.883Z,4.30
2022-10-29T05:32:44.705Z,4.53
2022-10-29T05:35:47.547Z,4.25
2022-10-29T05:38:51.580Z,4.63
2022-10-29T05:41:54.153Z,4.82
2022-10-29T05:44:59.073Z,4.60
2022-10-29T05:48:04.095Z,4.60
2022-10-29T05:51:06.779Z,4.55
2022-10-29T05:54:10.809Z,4.27
2022-10-29T05:57:13.363Z,4.22
2022-10-29T06:00:16.574Z,4.20
2022-10-29T06:03:23.148Z,4.10
2022-10-29T06:06:25.836Z,4.55
2022-10-29T06:09:29.903Z,4.43
2022-10-29T06:12:34.889Z,3.97
2022-10-29T06:15:37.765Z,4.40
2022-10-29T06:18:40.521Z,3.65
2022-10-29T06:21:43.118Z,3.83
2022-10-29T06:24:47.156Z,3.93
2022-10-29T06:27:49.699Z,4.10
2022-10-29T06:30:52.602Z,4.10
2022-10-29T06:33:56.268Z,3.90
2022-10-29T06:36:58.805Z,4.82
2022-10-29T06:40:02.896Z,3.53
2022-10-29T06:43:07.322Z,4.05
2022-10-29T06:46:10.169Z,4.40
2022-10-29T06:49:12.748Z,3.97
2022-10-29T06:52:15.307Z,4.13
2022-10-29T06:55:19.451Z,4.63
2022-10-29T06:58:22.210Z,4.03
2022-10-29T07:01:30.732Z,4.13
2022-10-29T07:04:34.550Z,4.38
2022-10-29T07:07:37.113Z,3.80
2022-10-29T07:10:41.146Z,4.30
2022-10-29T07:13:43.751Z,4.97
2022-10-29T07:16:46.438Z,4.60
2022-10-29T07:19:49.142Z,4.75
2022-10-29T07:22:51.713Z,4.75
2022-10-29T07:25:55.804Z,4.83
2022-10-29T07:28:58.572Z,4.63
2022-10-29T07:32:01.288Z,4.43
2022-10-29T07:35:04.025Z,4.32
2022-10-29T07:38:10.888Z,4.40
2022-10-29T07:41:15.650Z,4.60
2022-10-29T07:44:18.328Z,4.32
2022-10-29T07:47:21.075Z,5.07
2022-10-29T07:50:23.821Z,4.32
2022-10-29T07:53:26.681Z,4.80
2022-10-29T07:56:30.734Z,4.70
2022-10-29T07:59:33.292Z,4.38
2022-10-29T08:02:36.032Z,4.78
2022-10-29T08:05:39.037Z,4.35
2022-10-29T08:08:41.585Z,4.10
2022-10-29T08:11:49.020Z,4.30
2022-10-29T08:14:58.195Z,4.10
2022-10-29T08:18:01.255Z,4.28
2022-10-29T08:21:05.848Z,4.05
2022-10-29T08:24:08.554Z,4.25
2022-10-29T08:27:12.606Z,4.30
2022-10-29T08:30:15.277Z,3.80
2022-10-29T08:33:18.183Z,4.55
2022-10-29T08:36:20.899Z,4.35
2022-10-29T08:39:23.562Z,4.13
2022-10-29T08:42:40.305Z,3.80
2022-10-29T08:45:47.515Z,4.28
2022-10-29T08:48:55.443Z,4.35
2022-10-29T08:52:04.207Z,3.88
2022-10-29T08:55:14.238Z,3.95
2022-10-29T08:58:28.112Z,3.60
2022-10-29T09:01:31.562Z,3.95
2022-10-29T09:04:35.831Z,4.88
2022-10-29T09:08:02.085Z,4.23
2022-10-29T09:11:26.372Z,4.70
2022-10-29T09:14:46.459Z,4.32
2022-10-29T09:18:05.725Z,4.60
2022-10-29T09:21:18.482Z,4.35
2022-10-29T09:24:31.307Z,3.63
2022-10-29T09:27:46.080Z,4.70
2022-10-29T09:30:59.942Z,3.80
2022-10-29T09:34:11.027Z,3.93
2022-10-29T09:37:18.853Z,3.65
2022-10-29T09:40:32.143Z,4.28
2022-10-29T09:43:39.935Z,3.78
2022-10-29T09:46:50.964Z,3.80
2022-10-29T09:50:12.743Z,4.80
2022-10-29T09:53:15.736Z,4.18
2022-10-29T09:56:18.472Z,3.67
2022-10-29T09:59:29.493Z,3.72
2022-10-29T10:02:37.495Z,4.05
2022-10-29T10:05:58.461Z,4.65
2022-10-29T10:09:02.770Z,10.00
2022-10-29T10:12:08.788Z,7.17
2022-10-29T10:15:21.018Z,5.15
2022-10-29T10:18:27.061Z,4.40
2022-10-29T10:21:31.931Z,4.25
2022-10-29T10:24:36.122Z,3.72
2022-10-29T10:27:38.658Z,4.40
2022-10-29T10:30:43.205Z,9.27
2022-10-29T10:33:51.043Z,5.82
2022-10-29T10:36:56.256Z,4.13
2022-10-29T10:40:02.624Z,4.35
2022-10-29T10:43:08.240Z,4.10
2022-10-29T10:46:17.205Z,4.00
2022-10-29T10:49:30.184Z,7.07
2022-10-29T10:52:33.505Z,4.72
2022-10-29T10:55:38.721Z,4.13
2022-10-29T10:58:48.248Z,3.80
2022-10-29T11:01:53.543Z,3.80
2022-10-29T11:05:05.111Z,4.10
2022-10-29T11:08:17.392Z,5.05
2022-10-29T11:11:27.457Z,3.97
2022-10-29T11:15:14.196Z,3.90
2022-10-29T11:18:21.916Z,4.37
2022-10-29T11:21:31.738Z,4.13
2022-10-29T11:24:45.097Z,3.63
2022-10-29T11:27:52.958Z,3.55
2022-10-29T11:31:01.115Z,3.50
2022-10-29T11:34:07.729Z,3.50
2022-10-29T11:37:19.418Z,3.60
2022-10-29T11:40:25.118Z,3.53
2022-10-29T11:43:27.694Z,4.43
2022-10-29T11:46:40.403Z,4.07
2022-10-29T11:49:58.184Z,3.80
2022-10-29T11:53:17.078Z,3.60
2022-10-29T11:56:31.164Z,10.23
2022-10-29T11:59:48.142Z,17.98
2022-10-29T12:03:16.908Z,6.10
2022-10-29T12:06:26.393Z,3.20
2022-10-29T12:09:46.518Z,3.50
2022-10-29T12:12:53.497Z,6.03
2022-10-29T12:16:08.744Z,4.53
2022-10-29T12:19:25.815Z,3.70
2022-10-29T12:22:38.287Z,4.53
2022-10-29T12:25:52.836Z,3.92
2022-10-29T12:29:03.976Z,3.92
2022-10-29T12:32:12.912Z,3.30
2022-10-29T12:35:21.256Z,3.08
2022-10-29T12:38:39.119Z,3.00
2022-10-29T12:41:47.103Z,3.55
2022-10-29T12:45:01.661Z,13.10
2022-10-29T12:48:11.951Z,4.60
2022-10-29T12:51:21.426Z,4.00
2022-10-29T12:54:36.818Z,3.50
2022-10-29T12:57:40.867Z,4.00
2022-10-29T13:00:48.723Z,4.90
2022-10-29T13:04:02.205Z,3.95
2022-10-29T13:07:07.199Z,4.82
2022-10-29T13:10:43.109Z,7.33
2022-10-29T13:14:00.155Z,5.85
2022-10-29T13:17:05.253Z,5.22
2022-10-29T13:20:21.680Z,5.05
2022-10-29T13:23:35.106Z,5.18
2022-10-29T13:26:58.778Z,3.47
2022-10-29T13:30:25.526Z,3.90
2022-10-29T13:33:52.391Z,4.82
2022-10-29T13:36:54.975Z,4.88
2022-10-29T13:40:31.011Z,4.70
2022-10-29T13:43:34.516Z,8.10
2022-10-29T13:46:48.761Z,5.07
2022-10-29T13:49:52.027Z,5.15
2022-10-29T13:52:59.688Z,4.72
2022-10-29T13:56:03.209Z,10.18
2022-10-29T13:59:12.212Z,6.87
2022-10-29T14:02:24.793Z,5.00
2022-10-29T14:05:32.563Z,4.63
2022-10-29T14:08:41.736Z,4.50
2022-10-29T14:11:49.507Z,5.47
2022-10-29T14:14:59.095Z,5.00
2022-10-29T14:18:24.864Z,4.85
2022-10-29T14:21:30.118Z,4.47
2022-10-29T14:24:38.618Z,6.70
2022-10-29T14:27:41.495Z,4.80
2022-10-29T14:30:44.486Z,4.82
2022-10-29T14:33:55.364Z,4.43
2022-10-29T14:37:03.269Z,4.65
2022-10-29T14:40:16.210Z,4.00
2022-10-29T14:43:24.953Z,5.30
2022-10-29T14:46:30.035Z,4.28
2022-10-29T14:49:36.262Z,7.30
2022-10-29T14:52:42.302Z,6.00
2022-10-29T14:55:49.217Z,5.03
2022-10-29T14:58:51.821Z,4.87
2022-10-29T15:02:05.609Z,6.78
2022-10-29T15:05:26.888Z,8.27
2022-10-29T15:08:34.248Z,5.70
2022-10-29T15:11:39.164Z,4.63
2022-10-29T15:14:48.164Z,5.30
2022-10-29T15:17:53.295Z,5.35
2022-10-29T15:20:57.854Z,5.53
2022-10-29T15:24:06.492Z,6.30
2022-10-29T15:27:14.827Z,6.10
2022-10-29T15:30:20.338Z,5.00
2022-10-29T15:33:27.575Z,5.85
2022-10-29T15:40:05.999Z,14.93
2022-10-29T15:43:30.172Z,9.77
2022-10-29T15:46:45.267Z,6.83
2022-10-29T15:49:48.189Z,6.17
2022-10-29T15:52:56.949Z,5.68
2022-10-29T15:56:00.864Z,5.10
2022-10-29T15:59:03.645Z,7.28
2022-10-29T16:02:17.502Z,8.03
2022-10-29T16:05:20.396Z,7.10
2022-10-29T16:08:27.597Z,7.15
2022-10-29T16:11:31.639Z,7.20
2022-10-29T16:14:34.388Z,7.22
2022-10-29T16:17:37.202Z,7.90
2022-10-29T16:20:39.823Z,6.43
2022-10-29T16:23:43.004Z,5.35
2022-10-29T16:26:46.993Z,4.78
2022-10-29T16:29:50.106Z,4.85
2022-10-29T16:32:53.362Z,4.70
2022-10-29T16:35:57.501Z,4.37
2022-10-29T16:39:03.099Z,4.88
2022-10-29T16:42:08.590Z,5.70
2022-10-29T16:45:16.690Z,6.45
2022-10-29T16:48:20.551Z,8.20
2022-10-29T16:51:23.263Z,9.43
2022-10-29T16:54:26.266Z,8.30
2022-10-29T16:57:30.726Z,7.50
2022-10-29T17:00:36.922Z,7.18
2022-10-29T17:03:40.181Z,6.63
2022-10-29T17:06:42.855Z,10.40
2022-10-29T17:09:45.515Z,11.75
2022-10-29T17:12:50.126Z,12.27
2022-10-29T17:15:52.789Z,10.15
2022-10-29T17:18:56.546Z,8.53
2022-10-29T17:21:59.595Z,8.67
2022-10-29T17:25:02.348Z,10.07
2022-10-29T17:28:06.286Z,9.10
2022-10-29T17:31:10.250Z,8.45
2022-10-29T17:34:12.799Z,10.77
2022-10-29T17:37:15.403Z,13.73
2022-10-29T17:40:18.129Z,13.15
2022-10-29T17:43:22.185Z,13.50
2022-10-29T17:46:24.794Z,11.82
2022-10-29T17:49:27.611Z,10.03
2022-10-29T17:52:30.189Z,9.30
2022-10-29T17:55:32.875Z,8.75
2022-10-29T17:58:38.973Z,8.00
2022-10-29T18:01:41.791Z,7.72
2022-10-29T18:04:46.556Z,7.00
2022-10-29T18:07:49.232Z,5.90
2022-10-29T18:10:53.505Z,6.03
2022-10-29T18:13:58.510Z,5.78
2022-10-29T18:17:02.785Z,5.90
2022-10-29T18:20:06.643Z,5.47
2022-10-29T18:23:09.315Z,5.83
2022-10-29T18:26:22.537Z,5.95
2022-10-29T18:29:26.470Z,6.28
2022-10-29T18:32:29.038Z,6.40
2022-10-29T18:35:31.701Z,7.20
2022-10-29T18:38:34.565Z,8.43
2022-10-29T18:41:37.111Z,10.10
2022-10-29T18:44:41.094Z,11.13
2022-10-29T18:47:43.644Z,11.52
2022-10-29T18:50:46.224Z,11.40
2022-10-29T18:53:49.234Z,12.13
2022-10-29T18:56:52.299Z,11.15
2022-10-29T18:59:56.337Z,12.38
2022-10-29T19:02:59.251Z,11.07
2022-10-29T19:06:03.659Z,10.77
2022-10-29T19:09:08.805Z,9.60
2022-10-29T19:12:12.973Z,9.85
2022-10-29T19:15:17.127Z,11.20
2022-10-29T19:18:19.962Z,10.43
2022-10-29T19:21:23.646Z,9.43
2022-10-29T19:24:26.648Z,9.90
2022-10-29T19:27:29.400Z,9.90
2022-10-29T19:30:33.941Z,11.30
2022-10-29T19:33:37.291Z,11.60
2022-10-29T19:36:40.646Z,12.50
2022-10-29T19:39:43.412Z,11.57
2022-10-29T19:42:48.451Z,10.60
2022-10-29T19:45:57.742Z,9.90
2022-10-29T19:49:00.683Z,8.38
2022-10-29T19:52:03.377Z,7.83
2022-10-29T19:55:07.031Z,7.27
2022-10-29T19:58:10.752Z,7.20
2022-10-29T20:01:15.995Z,7.82
2022-10-29T20:04:18.965Z,7.40
2022-10-29T20:07:21.773Z,6.97
2022-10-29T20:10:25.500Z,7.30
2022-10-29T20:13:28.521Z,6.75
2022-10-29T20:16:35.605Z,6.07
2022-10-29T20:19:40.277Z,6.32
2022-10-29T20:22:48.160Z,6.50
2022-10-29T20:25:51.718Z,6.90
2022-10-29T20:29:01.301Z,6.13
2022-10-29T20:32:06.026Z,6.10
2022-10-29T20:35:12.237Z,6.38
2022-10-29T20:38:15.000Z,6.53
2022-10-29T20:41:17.838Z,6.60
2022-10-29T20:44:20.542Z,6.68
2022-10-29T20:47:25.880Z,6.80
2022-10-29T20:50:28.799Z,7.10
2022-10-29T20:53:31.391Z,10.03
2022-10-29T20:56:34.199Z,8.43
2022-10-29T20:59:37.291Z,9.07
2022-10-29T21:02:41.806Z,8.52
2022-10-29T21:05:45.388Z,7.10
2022-10-29T21:08:48.882Z,7.80
2022-10-29T21:11:52.800Z,7.38
2022-10-29T21:14:55.592Z,7.65
2022-10-29T21:18:05.144Z,6.72
2022-10-29T21:21:10.607Z,7.27
2022-10-29T21:24:13.194Z,7.90
2022-10-29T21:27:18.509Z,8.02
2022-10-29T21:30:22.750Z,9.18
2022-10-29T21:33:26.844Z,7.47
2022-10-29T21:36:29.634Z,7.90
2022-10-29T21:39:33.280Z,7.47
2022-10-29T21:42:36.549Z,8.20
2022-10-29T21:45:39.520Z,8.52
2022-10-29T21:48:43.790Z,8.52
2022-10-29T21:51:48.210Z,9.20
2022-10-29T21:54:51.853Z,8.93
2022-10-29T21:57:54.659Z,8.48
2022-10-29T22:01:07.359Z,8.95
2022-10-29T22:04:11.463Z,8.48
2022-10-29T22:07:14.363Z,8.33
2022-10-29T22:10:17.224Z,8.53
2022-10-29T22:13:20.230Z,8.68
2022-10-29T22:16:23.540Z,8.27
2022-10-29T22:19:27.927Z,8.60
2022-10-29T22:22:30.651Z,9.37
2022-10-29T22:25:33.782Z,9.70
2022-10-29T22:28:36.475Z,8.60
2022-10-29T22:31:39.467Z,8.40
2022-10-29T22:34:43.374Z,8.23
2022-10-29T22:37:46.701Z,9.00
2022-10-29T22:40:49.389Z,7.83
2022-10-29T22:43:52.831Z,7.90
2022-10-29T22:46:55.498Z,8.02
2022-10-29T22:50:03.115Z,8.32
2022-10-29T22:53:09.016Z,8.13
2022-10-29T22:56:15.359Z,7.17
2022-10-29T22:59:18.434Z,7.43
2022-10-29T23:02:21.639Z,7.20
2022-10-29T23:05:25.928Z,7.35
2022-10-29T23:08:29.319Z,7.90
2022-10-29T23:11:35.188Z,8.20
2022-10-29T23:14:38.501Z,8.32
2022-10-29T23:17:41.479Z,8.80
2022-10-29T23:20:46.084Z,9.32
2022-10-29T23:23:49.906Z,9.43
2022-10-29T23:26:52.559Z,8.80
2022-10-29T23:29:55.391Z,8.88
2022-10-29T23:32:58.364Z,8.98
2022-10-29T23:36:07.806Z,9.85
2022-10-29T23:39:10.609Z,9.40
2022-10-29T23:42:13.349Z,9.73
2022-10-29T23:45:16.921Z,9.68
2022-10-29T23:48:20.434Z,9.10
2022-10-29T23:51:24.373Z,9.40
2022-10-29T23:54:27.155Z,9.70
2022-10-29T23:57:29.685Z,8.97
